createdAt,value
2023-10-23T00:00:57.397Z,10.80
2023-10-23T00:04:59.741Z,10.80
2023-10-23T00:09:02.008Z,10.80
2023-10-23T00:13:04.170Z,10.70
2023-10-23T00:17:05.958Z,10.80
2023-10-23T00:21:08.849Z,10.70
2023-10-23T00:25:10.743Z,10.70
2023-10-23T00:29:12.848Z,10.70
2023-10-23T00:33:14.989Z,10.60
2023-10-23T00:37:16.965Z,10.60
2023-10-23T00:41:18.911Z,10.50
2023-10-23T00:45:20.790Z,10.30
2023-10-23T00:49:22.983Z,10.20
2023-10-23T00:53:26.797Z,10.20
2023-10-23T00:57:29.000Z,10.10
2023-10-23T01:01:33.790Z,10.10
2023-10-23T01:05:35.755Z,10.00
2023-10-23T01:09:37.910Z,10.00
2023-10-23T01:13:39.868Z,9.90
2023-10-23T01:17:42.041Z,9.80
2023-10-23T01:21:43.995Z,9.80
2023-10-23T01:25:46.125Z,9.70
2023-10-23T01:29:48.487Z,9.70
2023-10-23T01:33:50.446Z,9.70
2023-10-23T01:37:53.215Z,9.70
2023-10-23T01:41:55.072Z,9.60
2023-10-23T01:45:58.454Z,9.50
2023-10-23T01:50:00.647Z,9.60
2023-10-23T01:54:02.431Z,9.50
2023-10-23T01:58:04.284Z,9.50
2023-10-23T02:02:06.700Z,9.40
2023-10-23T02:06:08.609Z,9.40
2023-10-23T02:10:10.684Z,9.20
2023-10-23T02:14:13.462Z,9.10
2023-10-23T02:18:15.341Z,8.90
2023-10-23T02:22:19.910Z,9.00
2023-10-23T02:26:22.740Z,9.00
2023-10-23T02:30:24.575Z,8.90
2023-10-23T02:34:26.521Z,8.70
2023-10-23T02:38:28.608Z,8.80
2023-10-23T02:42:30.677Z,8.90
2023-10-23T02:46:42.028Z,8.80
2023-10-23T02:50:53.085Z,8.80
2023-10-23T02:54:55.236Z,8.80
2023-10-23T02:58:56.954Z,8.40
2023-10-23T03:02:59.090Z,8.30
2023-10-23T03:07:01.127Z,8.20
2023-10-23T03:11:02.947Z,8.30
2023-10-23T03:15:05.218Z,8.30
2023-10-23T03:19:07.137Z,8.20
2023-10-23T03:23:09.884Z,8.20
2023-10-23T03:27:32.046Z,8.40
2023-10-23T03:31:34.235Z,8.50
2023-10-23T03:35:41.740Z,8.50
2023-10-23T03:39:44.666Z,8.40
2023-10-23T03:43:46.593Z,8.40
2023-10-23T03:47:48.621Z,8.40
2023-10-23T03:51:50.975Z,8.50
2023-10-23T03:55:54.919Z,8.40
2023-10-23T03:59:56.785Z,8.40
2023-10-23T04:03:58.965Z,8.30
2023-10-23T04:08:00.895Z,8.30
2023-10-23T04:12:02.916Z,8.30
2023-10-23T04:16:05.069Z,8.30
2023-10-23T04:20:10.293Z,8.20
2023-10-23T04:24:12.288Z,8.10
2023-10-23T04:28:16.458Z,8.20
2023-10-23T04:32:18.149Z,8.10
2023-10-23T04:36:23.118Z,8.10
2023-10-23T04:40:28.626Z,8.10
2023-10-23T04:44:30.385Z,8.10
2023-10-23T04:48:32.802Z,8.10
2023-10-23T04:52:37.567Z,8.00
2023-10-23T04:56:41.528Z,8.10
2023-10-23T05:00:43.604Z,8.00
2023-10-23T05:04:45.838Z,7.90
2023-10-23T05:08:47.711Z,7.90
2023-10-23T05:12:51.189Z,7.90
2023-10-23T05:16:53.020Z,7.90
2023-10-23T05:20:54.937Z,7.80
2023-10-23T05:24:56.723Z,7.80
2023-10-23T05:28:58.556Z,7.70
2023-10-23T05:33:00.679Z,7.60
2023-10-23T05:37:03.033Z,7.60
2023-10-23T05:41:08.834Z,7.60
2023-10-23T05:45:10.973Z,7.50
2023-10-23T05:49:12.853Z,7.50
2023-10-23T05:53:14.633Z,7.50
2023-10-23T05:57:16.742Z,7.50
2023-10-23T06:01:18.847Z,7.50
2023-10-23T06:10:12.374Z,7.50
2023-10-23T06:14:14.654Z,7.50
2023-10-23T06:18:16.836Z,7.50
2023-10-23T06:22:18.687Z,7.60
2023-10-23T06:26:21.284Z,7.50
2023-10-23T06:30:23.591Z,7.50
2023-10-23T06:34:25.519Z,7.60
2023-10-23T06:38:27.886Z,7.50
2023-10-23T06:42:30.168Z,7.60
2023-10-23T06:46:32.639Z,7.80
2023-10-23T06:50:34.389Z,7.90
2023-10-23T06:54:36.260Z,7.90
2023-10-23T06:58:38.589Z,7.90
2023-10-23T07:02:40.629Z,7.90
2023-10-23T07:06:42.598Z,8.00
2023-10-23T07:10:44.497Z,8.00
2023-10-23T07:14:46.905Z,8.20
2023-10-23T07:18:48.950Z,8.20
2023-10-23T07:22:52.295Z,8.20
2023-10-23T07:26:54.545Z,8.30
2023-10-23T07:30:56.662Z,8.40
2023-10-23T07:34:58.644Z,8.50
2023-10-23T07:39:00.664Z,8.60
2023-10-23T07:43:02.532Z,8.70
2023-10-23T07:47:05.288Z,8.70
2023-10-23T07:51:07.734Z,8.80
2023-10-23T07:55:09.856Z,8.80
2023-10-23T07:59:11.864Z,8.80
2023-10-23T08:03:14.936Z,9.10
2023-10-23T08:07:17.367Z,9.30
2023-10-23T08:11:19.382Z,9.40
2023-10-23T08:15:21.316Z,9.30
2023-10-23T08:19:23.581Z,9.50
2023-10-23T08:23:25.564Z,9.60
2023-10-23T08:27:27.838Z,9.70
2023-10-23T08:31:39.482Z,9.70
2023-10-23T08:35:42.779Z,9.80
2023-10-23T08:39:45.602Z,10.10
2023-10-23T08:43:47.705Z,10.10
2023-10-23T08:47:49.901Z,10.20
2023-10-23T08:51:54.940Z,10.40
2023-10-23T08:55:57.323Z,10.50
2023-10-23T08:59:59.220Z,10.70
2023-10-23T09:04:03.277Z,10.60
2023-10-23T09:08:07.405Z,10.90
2023-10-23T09:12:12.869Z,11.10
2023-10-23T09:16:17.769Z,11.30
2023-10-23T09:20:27.527Z,11.50
2023-10-23T09:24:31.047Z,11.60
2023-10-23T09:28:35.145Z,11.60
2023-10-23T09:32:38.361Z,11.80
2023-10-23T09:36:40.629Z,11.80
2023-10-23T09:40:44.848Z,11.90
2023-10-23T09:44:49.586Z,11.90
2023-10-23T09:48:56.610Z,12.10
2023-10-23T09:53:07.187Z,12.20
2023-10-23T09:57:10.973Z,12.20
2023-10-23T10:01:13.569Z,12.30
2023-10-23T10:05:38.554Z,12.30
2023-10-23T10:09:42.936Z,12.40
2023-10-23T10:13:45.750Z,12.60
2023-10-23T10:17:50.873Z,12.60
2023-10-23T10:22:16.186Z,12.50
2023-10-23T10:26:19.710Z,12.60
2023-10-23T10:30:48.600Z,12.60
2023-10-23T10:34:56.446Z,12.60
2023-10-23T10:38:59.757Z,12.60
2023-10-23T10:43:07.411Z,12.80
2023-10-23T10:47:14.252Z,12.80
2023-10-23T10:51:26.122Z,12.80
2023-10-23T10:55:28.301Z,12.80
2023-10-23T10:59:31.356Z,12.70
2023-10-23T11:03:35.664Z,12.90
2023-10-23T11:07:39.023Z,12.90
2023-10-23T11:11:41.793Z,12.90
2023-10-23T11:15:44.138Z,12.90
2023-10-23T11:19:46.613Z,13.00
2023-10-23T11:23:48.588Z,12.90
2023-10-23T11:27:56.287Z,13.00
2023-10-23T11:31:58.405Z,13.10
2023-10-23T11:36:01.769Z,13.20
2023-10-23T11:40:07.699Z,13.10
2023-10-23T11:44:10.589Z,13.20
2023-10-23T11:48:15.413Z,13.20
2023-10-23T11:52:18.011Z,13.40
2023-10-23T11:56:24.537Z,13.40
2023-10-23T12:00:26.814Z,13.40
2023-10-23T12:04:36.625Z,13.40
2023-10-23T12:08:39.198Z,13.40
2023-10-23T12:12:43.266Z,13.40
2023-10-23T12:16:47.658Z,13.40
2023-10-23T12:20:49.843Z,13.50
2023-10-23T12:24:51.906Z,13.60
2023-10-23T12:28:56.142Z,13.50
2023-10-23T12:33:13.674Z,13.50
2023-10-23T12:37:20.351Z,13.50
2023-10-23T12:41:24.559Z,13.50
2023-10-23T12:45:27.289Z,13.40
2023-10-23T12:49:30.555Z,13.40
2023-10-23T12:53:32.762Z,13.40
2023-10-23T12:57:34.755Z,13.40
2023-10-23T13:01:39.728Z,13.50
2023-10-23T13:05:42.142Z,13.50
2023-10-23T13:09:44.180Z,13.50
2023-10-23T13:13:49.519Z,13.40
2023-10-23T13:17:55.244Z,13.40
2023-10-23T13:21:57.332Z,13.40
2023-10-23T13:26:12.501Z,13.40
2023-10-23T13:30:16.323Z,13.40
2023-10-23T13:34:19.525Z,13.40
2023-10-23T13:38:21.423Z,13.30
2023-10-23T13:42:23.411Z,13.30
2023-10-23T13:46:26.758Z,13.20
2023-10-23T13:50:28.834Z,13.20
2023-10-23T13:54:30.592Z,13.20
2023-10-23T13:58:33.930Z,13.00
2023-10-23T14:02:37.806Z,13.10
2023-10-23T14:06:39.995Z,13.10
2023-10-23T14:10:41.853Z,13.10
2023-10-23T14:14:44.080Z,13.00
2023-10-23T14:18:45.892Z,12.90
2023-10-23T14:22:47.685Z,13.00
2023-10-23T14:26:49.575Z,12.80
2023-10-23T14:30:52.624Z,12.80
2023-10-23T14:34:54.360Z,12.80
2023-10-23T14:38:56.373Z,12.80
2023-10-23T14:42:58.691Z,12.70
2023-10-23T14:47:00.842Z,12.60
2023-10-23T14:51:03.066Z,12.70
2023-10-23T14:55:06.199Z,12.60
2023-10-23T14:59:08.332Z,12.50
2023-10-23T15:03:10.346Z,12.40
2023-10-23T15:07:12.199Z,12.30
2023-10-23T15:11:15.777Z,12.30
2023-10-23T15:15:22.659Z,12.30
2023-10-23T15:19:27.404Z,12.30
2023-10-23T15:23:29.229Z,12.20
2023-10-23T15:27:31.056Z,12.20
2023-10-23T15:31:34.142Z,12.10
2023-10-23T15:35:36.133Z,12.10
2023-10-23T15:39:41.892Z,12.10
2023-10-23T15:43:46.154Z,12.10
2023-10-23T15:47:48.020Z,12.10
2023-10-23T15:51:50.031Z,12.10
2023-10-23T15:55:52.331Z,12.10
2023-10-23T15:59:54.188Z,12.00
2023-10-23T16:03:56.081Z,12.00
2023-10-23T16:08:02.691Z,12.10
2023-10-23T16:12:09.884Z,12.00
2023-10-23T16:16:16.314Z,11.90
2023-10-23T16:20:18.963Z,11.70
2023-10-23T16:24:20.748Z,11.70
2023-10-23T16:28:24.062Z,11.70
2023-10-23T16:32:26.250Z,11.70
2023-10-23T16:36:28.552Z,11.80
2023-10-23T16:40:33.856Z,11.90
2023-10-23T16:44:48.929Z,11.80
2023-10-23T16:48:57.480Z,11.80
2023-10-23T16:53:02.607Z,11.80
2023-10-23T16:57:05.993Z,11.80
2023-10-23T17:01:14.473Z,11.60
2023-10-23T17:05:19.544Z,11.60
2023-10-23T17:09:26.843Z,11.60
2023-10-23T17:13:30.756Z,11.40
2023-10-23T17:17:32.932Z,11.50
2023-10-23T17:21:36.194Z,11.40
2023-10-23T17:25:44.560Z,11.30
2023-10-23T17:29:50.816Z,11.40
2023-10-23T17:34:10.829Z,11.30
2023-10-23T17:38:20.973Z,11.30
2023-10-23T17:42:32.801Z,11.30
2023-10-23T17:46:45.471Z,11.40
2023-10-23T17:50:53.701Z,11.40
2023-10-23T17:55:02.043Z,11.40
2023-10-23T17:59:10.114Z,11.50
2023-10-23T18:03:12.313Z,11.50
2023-10-23T18:11:26.245Z,11.50
2023-10-23T18:15:28.132Z,11.40
2023-10-23T18:19:30.577Z,11.50
2023-10-23T18:23:32.809Z,11.40
2023-10-23T18:27:34.655Z,11.40
2023-10-23T18:31:37.381Z,11.50
2023-10-23T18:35:39.779Z,11.50
2023-10-23T18:39:42.004Z,11.50
2023-10-23T18:43:46.318Z,11.50
2023-10-23T18:47:48.744Z,11.50
2023-10-23T18:51:50.971Z,11.60
2023-10-23T18:55:53.123Z,11.60
2023-10-23T18:59:55.418Z,11.60
2023-10-23T19:03:57.247Z,11.60
2023-10-23T19:08:00.217Z,11.60
2023-10-23T19:12:02.182Z,11.60
2023-10-23T19:16:04.415Z,11.60
2023-10-23T19:20:06.720Z,11.70
2023-10-23T19:24:12.532Z,11.70
2023-10-23T19:28:16.032Z,11.70
2023-10-23T19:32:18.354Z,11.70
2023-10-23T19:36:20.818Z,11.70
2023-10-23T19:40:23.131Z,11.70
2023-10-23T19:44:26.001Z,11.70
2023-10-23T19:48:28.462Z,11.80
2023-10-23T19:52:37.812Z,11.80
2023-10-23T19:56:39.997Z,11.80
2023-10-23T20:00:49.983Z,11.80
2023-10-23T20:04:53.444Z,11.80
2023-10-23T20:08:55.695Z,11.80
2023-10-23T20:13:00.250Z,11.80
2023-10-23T20:17:02.464Z,11.80
2023-10-23T20:21:04.949Z,11.90
2023-10-23T20:25:06.975Z,11.90
2023-10-23T20:29:09.150Z,11.90
2023-10-23T20:33:11.238Z,11.90
2023-10-23T20:37:13.157Z,11.90
2023-10-23T20:41:17.086Z,12.00
2023-10-23T20:45:18.897Z,12.00
2023-10-23T20:49:20.739Z,12.00
2023-10-23T20:53:22.806Z,12.00
2023-10-23T20:57:24.887Z,11.90
2023-10-23T21:01:28.519Z,12.00
2023-10-23T21:05:35.544Z,11.90
2023-10-23T21:09:37.935Z,12.00
2023-10-23T21:13:39.922Z,12.00
2023-10-23T21:17:42.399Z,12.00
2023-10-23T21:21:46.602Z,11.90
2023-10-23T21:25:50.825Z,12.00
2023-10-23T21:29:53.359Z,12.00
2023-10-23T21:33:56.858Z,12.00
2023-10-23T21:38:00.888Z,12.00
2023-10-23T21:42:02.722Z,12.00
2023-10-23T21:46:16.544Z,12.00
2023-10-23T21:50:19.431Z,12.00
2023-10-23T21:54:21.487Z,12.00
2023-10-23T21:58:23.802Z,12.00
2023-10-23T22:02:25.905Z,12.00
2023-10-23T22:06:28.142Z,12.00
2023-10-23T22:10:30.542Z,11.90
2023-10-23T22:14:32.636Z,12.00
2023-10-23T22:18:35.107Z,11.90
2023-10-23T22:22:36.986Z,11.90
2023-10-23T22:26:38.821Z,11.90
2023-10-23T22:30:40.642Z,12.00
2023-10-23T22:34:42.503Z,11.90
2023-10-23T22:38:44.524Z,11.90
2023-10-23T22:42:46.728Z,11.90
2023-10-23T22:46:48.648Z,11.90
2023-10-23T22:50:50.617Z,12.00
2023-10-23T22:54:53.159Z,12.00
2023-10-23T22:58:57.128Z,12.00
2023-10-23T23:02:59.447Z,12.10
2023-10-23T23:07:02.985Z,12.10
2023-10-23T23:11:05.450Z,12.30
2023-10-23T23:15:08.009Z,12.30
2023-10-23T23:19:13.040Z,12.30
2023-10-23T23:23:15.104Z,12.30
2023-10-23T23:27:17.113Z,12.20
2023-10-23T23:31:25.898Z,12.30
2023-10-23T23:35:40.685Z,12.30
2023-10-23T23:39:47.042Z,12.30
2023-10-23T23:44:02.350Z,12.30
2023-10-23T23:48:11.857Z,12.40
2023-10-23T23:52:37.103Z,12.50
2023-10-23T23:56:46.339Z,12.50
